ADDS METAR Data INFO
IDs: Format: Raw Decoded Include TAF

Data at: 1153 UTC 21 Jun 2018

KAJZ 211135Z AUTO 06005KT 10SM CLR 15/00 A3017 RMK AO2 T01450000
KAJZ 211115Z AUTO 07006KT 10SM CLR 16/01 A3017 RMK AO2 T01570013
KAJZ 211055Z AUTO 07008KT 10SM CLR 16/03 A3016 RMK AO2 T01600025
KAJZ 211035Z AUTO 07008KT 10SM CLR 16/02 A3016 RMK AO2 T01570023
KAJZ 211015Z AUTO 04006KT 10SM CLR 15/03 A3016 RMK AO2 T01480025
KAJZ 210955Z AUTO 03003KT 10SM CLR 15/03 A3016 RMK AO2 T01540025
KAJZ 210935Z AUTO 07003KT 10SM CLR 16/02 A3016 RMK AO2 T01590022
KAJZ 210915Z AUTO 07007KT 10SM CLR 17/03 A3016 RMK AO2 T01670025
KAJZ 210855Z AUTO 06007KT 10SM CLR 17/02 A3016 RMK AO2 T01710021
KAJZ 210835Z AUTO 06006KT 10SM CLR 17/01 A3016 RMK AO2 T01720007
KAJZ 210815Z AUTO 06006KT 10SM CLR 17/00 A3016 RMK AO2 T01701002
KAJZ 210755Z AUTO 06006KT 10SM CLR 17/01 A3015 RMK AO2 T01730009
KAJZ 210735Z AUTO 07004KT 10SM CLR 19/01 A3015 RMK AO2 T01850011
KAJZ 210715Z AUTO 03004KT 10SM CLR 19/02 A3015 RMK AO2 T01910020
KAJZ 210655Z AUTO 04003KT 10SM CLR 18/03 A3015 RMK AO2 T01840029
KAJZ 210635Z AUTO 00000KT 10SM CLR 21/02 A3015 RMK AO2 T02050016
KAJZ 210615Z AUTO 07003KT 10SM CLR 21/01 A3015 RMK AO2 T02060013
KAJZ 210555Z AUTO 06007KT 10SM CLR 21/01 A3014 RMK AO2 T02050007 10325 20202 403320128
KAJZ 210535Z AUTO 09004KT 10SM CLR 21/02 A3013 RMK AO2 T02070017
KAJZ 210515Z AUTO 17003KT 10SM CLR 21/02 A3013 RMK AO2 T02050017
KAJZ 210455Z AUTO 00000KT 10SM CLR 23/00 A3012 RMK AO2 T02320000
KAJZ 210435Z AUTO 06003KT 10SM CLR 23/00 A3012 RMK AO2 T02271001
KAJZ 210415Z AUTO 01004KT 10SM CLR 23/02 A3012 RMK AO2 T02300018
KAJZ 210355Z AUTO 34004KT 10SM CLR 25/01 A3011 RMK AO2 T02510014
KAJZ 210335Z AUTO 35006KT 10SM CLR 26/01 A3011 RMK AO2 T02610008
KAJZ 210315Z AUTO 34004KT 10SM CLR 27/01 A3011 RMK AO2 T02680008
KAJZ 210255Z AUTO 33005KT 10SM CLR 28/M01 A3010 RMK AO2 T02831006
KAJZ 210235Z AUTO 31006KT 10SM CLR 30/M01 A3010 RMK AO2 T02951013
KAJZ 210215Z AUTO 29008KT 10SM CLR 30/M01 A3009 RMK AO2 T03041015
KAJZ 210155Z AUTO 30008G16KT 10SM CLR 31/M01 A3009 RMK AO2 T03081014
KAJZ 210135Z AUTO 29012KT 10SM CLR 31/M01 A3008 RMK AO2 T03101012
KAJZ 210115Z AUTO 28014G18KT 10SM CLR 32/M01 A3008 RMK AO2 T03151010
KAJZ 210055Z AUTO 29012G18KT 10SM CLR 32/M01 A3007 RMK AO2 T03201010
KAJZ 210035Z AUTO 28013G24KT 10SM CLR 32/M02 A3007 RMK AO2 T03221023
KAJZ 210015Z AUTO 30017G23KT 10SM CLR 32/M02 A3007 RMK AO2 T03231021
KAJZ 202355Z AUTO 30015G26KT 10SM CLR 33/M02 A3006 RMK AO2 T03251025 10332 20273
KAJZ 202335Z AUTO 31019G27KT 10SM CLR 32/M02 A3007 RMK AO2 T03221022
KAJZ 202315Z AUTO 31017G23KT 10SM CLR 33/M03 A3007 RMK AO2 T03291027
KAJZ 202255Z AUTO 29013G24KT 10SM CLR 33/M03 A3008 RMK AO2 T03301026
KAJZ 202235Z AUTO 30014G23KT 10SM CLR 33/M03 A3008 RMK AO2 T03271030
KAJZ 202215Z AUTO 31018G23KT 10SM CLR 33/M03 A3008 RMK AO2 T03291030
KAJZ 202155Z AUTO 29012G19KT 260V320 10SM CLR 32/M02 A3008 RMK AO2 T03231022
KAJZ 202135Z AUTO 28010G18KT 10SM CLR 33/M01 A3008 RMK AO2 T03261011
KAJZ 202115Z AUTO 30007G19KT 10SM CLR 32/M01 A3009 RMK AO2 T03221011
KAJZ 202055Z AUTO 30013G17KT 10SM CLR 32/M01 A3009 RMK AO2 T03201012
KAJZ 202035Z AUTO 27008G18KT 10SM CLR 31/M02 A3010 RMK AO2 T03141016
KAJZ 202015Z AUTO 28011G15KT 10SM CLR 32/M01 A3011 RMK AO2 T03151011
KAJZ 201955Z AUTO 30011G16KT 10SM CLR 31/M01 A3011 RMK AO2 T03101014
KAJZ 201935Z AUTO 25009KT 200V280 10SM CLR 30/M01 A3011 RMK AO2 T03001015
KAJZ 201915Z AUTO 25009KT 10SM CLR 30/M01 A3012 RMK AO2 T03031008
KAJZ 201855Z AUTO 21011G21KT 10SM CLR 30/M01 A3012 RMK AO2 T03021007
KAJZ 201835Z AUTO 23004KT 10SM CLR 28/00 A3013 RMK AO2 T02841001
KAJZ 201815Z AUTO 19004KT 10SM CLR 28/00 A3014 RMK AO2 T02770002
KAJZ 201755Z AUTO 21009KT 10SM CLR 28/01 A3015 RMK AO2 T02760006 10278 20128
KAJZ 201735Z AUTO 22007KT 10SM CLR 27/01 A3015 RMK AO2 T02720010
KAJZ 201715Z AUTO 16007KT 10SM CLR 27/02 A3016 RMK AO2 T02680015
KAJZ 201655Z AUTO 16007KT 10SM CLR 26/02 A3017 RMK AO2 T02570022
KAJZ 201635Z AUTO 16004KT 10SM CLR 25/02 A3017 RMK AO2 T02460019
KAJZ 201615Z AUTO 13004KT 10SM CLR 24/02 A3018 RMK AO2 T02370017
KAJZ 201555Z AUTO 00000KT 10SM CLR 23/01 A3018 RMK AO2 T02260013
KAJZ 201535Z AUTO 00000KT 10SM CLR 21/02 A3019 RMK AO2 T02140018
KAJZ 201515Z AUTO 00000KT 10SM CLR 21/02 A3019 RMK AO2 T02080018
KAJZ 201455Z AUTO 14003KT 10SM CLR 20/02 A3019 RMK AO2 T02000021
KAJZ 201435Z AUTO 11003KT 10SM CLR 19/03 A3019 RMK AO2 T01880032
KAJZ 201415Z AUTO 11004KT 10SM CLR 18/03 A3019 RMK AO2 T01820033
KAJZ 201355Z AUTO 11004KT 10SM CLR 18/02 A3018 RMK AO2 T01840018
KAJZ 201335Z AUTO 09005KT 10SM CLR 18/02 A3018 RMK AO2 T01770016
KAJZ 201315Z AUTO 07006KT 10SM CLR 17/01 A3017 RMK AO2 T01730010
KAJZ 201255Z AUTO 07004KT 10SM CLR 17/01 A3017 RMK AO2 T01680005
KAJZ 201235Z AUTO 00000KT 10SM CLR 15/00 A3016 RMK AO2 T01461005
KAJZ 201215Z AUTO 00000KT 10SM CLR 14/00 A3016 RMK AO2 T01361004
KAJZ 201155Z AUTO 00000KT 10SM CLR 13/M01 A3015 RMK AO2 T01301010 10226 20129
KAJZ 201135Z AUTO 00000KT 10SM CLR 15/M01 A3014 RMK AO2 T01451010
KAJZ 201115Z AUTO 00000KT 10SM CLR 17/00 A3013 RMK AO2 T01681002
KAJZ 201055Z AUTO 00000KT 10SM CLR 15/01 A3013 RMK AO2 T01450008
KAJZ 201035Z AUTO 04003KT 10SM CLR 15/00 A3013 RMK AO2 T01530001
KAJZ 201015Z AUTO 03003KT 10SM CLR 17/M01 A3013 RMK AO2 T01651008
KAJZ 200955Z AUTO 03005KT 10SM CLR 16/00 A3012 RMK AO2 T01621004
KAJZ 200935Z AUTO 01006KT 10SM CLR 16/00 A3012 RMK AO2 T01561003
KAJZ 200915Z AUTO 04006KT 10SM CLR 16/M01 A3011 RMK AO2 T01631009
KAJZ 200855Z AUTO 03005KT 10SM CLR 16/00 A3011 RMK AO2 T01570003
KAJZ 200835Z AUTO 10003KT 10SM CLR 17/M02 A3010 RMK AO2 T01681019
KAJZ 200815Z AUTO 00000KT 10SM CLR 19/M02 A3009 RMK AO2 T01871019
KAJZ 200755Z AUTO 00000KT 10SM CLR 19/M01 A3009 RMK AO2 T01911011
KAJZ 200735Z AUTO 07005KT 10SM CLR 19/M02 A3009 RMK AO2 T01921020
KAJZ 200715Z AUTO 11004KT 10SM CLR 19/M02 A3009 RMK AO2 T01851020
KAJZ 200655Z AUTO 10006KT 10SM CLR 19/M02 A3009 RMK AO2 T01871021
KAJZ 200635Z AUTO 12005KT 10SM CLR 20/M04 A3008 RMK AO2 T01961043
KAJZ 200615Z AUTO 10003KT 10SM CLR 21/M03 A3008 RMK AO2 T02111032
KAJZ 200555Z AUTO 00000KT 10SM CLR 22/M02 A3008 RMK AO2 T02221024 10328 20222 403380119
KAJZ 200535Z AUTO 09003KT 10SM CLR 24/M05 A3007 RMK AO2 T02401052
KAJZ 200515Z AUTO 00000KT 10SM CLR 24/M05 A3006 RMK AO2 T02441052
KAJZ 200455Z AUTO 26003KT 10SM CLR 25/M06 A3005 RMK AO2 T02521060
KAJZ 200435Z AUTO 29005KT 10SM CLR 26/M06 A3005 RMK AO2 T02591061
KAJZ 200415Z AUTO 30007KT 10SM CLR 26/M06 A3005 RMK AO2 T02641064
KAJZ 200355Z AUTO 29005KT 10SM CLR 27/M06 A3004 RMK AO2 T02701065
KAJZ 200335Z AUTO 29006KT 10SM CLR 27/M06 A3003 RMK AO2 T02721065
KAJZ 200315Z AUTO 30011G14KT 10SM CLR 28/M07 A3002 RMK AO2 T02761070
KAJZ 200255Z AUTO 28011KT 10SM CLR 28/M07 A3001 RMK AO2 T02821070
KAJZ 200235Z AUTO 28013G19KT 10SM CLR 29/M07 A3000 RMK AO2 T02871071
KAJZ 200215Z AUTO 29013G22KT 10SM CLR 30/M08 A3000 RMK AO2 T02951077
KAJZ 200155Z AUTO 29017G22KT 10SM CLR 30/M08 A2998 RMK AO2 T03021083
KAJZ 200135Z AUTO 30016G23KT 7SM CLR 31/M08 A2997 RMK AO2 T03071079
KAJZ 200115Z AUTO 29015G24KT 10SM CLR 31/M08 A2996 RMK AO2 T03131077
KAJZ 200055Z AUTO 30016G21KT 10SM CLR 32/M08 A2996 RMK AO2 T03201080
KAJZ 200035Z AUTO 30010G26KT 10SM CLR 32/M08 A2996 RMK AO2 T03231079
KAJZ 200015Z AUTO 31011G21KT 280V340 10SM CLR 33/M07 A2996 RMK AO2 T03261074
KAJZ 192355Z AUTO 30017G21KT 7SM CLR 33/M07 A2997 RMK AO2 T03271075 10338 20293